createdAt,value
2018-09-19T00:02:09.556Z,4.43
2018-09-19T00:04:38.041Z,4.40
2018-09-19T00:07:06.353Z,4.27
2018-09-19T00:09:34.878Z,4.37
2018-09-19T00:12:03.284Z,4.50
2018-09-19T00:14:31.737Z,3.97
2018-09-19T00:17:00.157Z,4.23
2018-09-19T00:19:28.653Z,4.10
2018-09-19T00:21:57.046Z,3.90
2018-09-19T00:24:25.559Z,3.53
2018-09-19T00:26:54.013Z,4.07
2018-09-19T00:29:22.426Z,3.67
2018-09-19T00:31:50.824Z,3.97
2018-09-19T00:34:19.309Z,3.93
2018-09-19T00:36:47.716Z,4.47
2018-09-19T00:39:16.204Z,4.23
2018-09-19T00:41:44.599Z,4.20
2018-09-19T00:44:13.025Z,4.50
2018-09-19T00:46:41.555Z,5.00
2018-09-19T00:49:09.963Z,4.83
2018-09-19T00:51:38.412Z,4.03
2018-09-19T00:54:06.736Z,4.60
2018-09-19T00:56:35.045Z,4.37
2018-09-19T00:59:03.540Z,4.23
2018-09-19T01:01:31.920Z,4.20
2018-09-19T01:04:00.326Z,4.63
2018-09-19T01:06:28.744Z,4.40
2018-09-19T01:08:57.300Z,4.20
2018-09-19T01:11:25.748Z,4.93
2018-09-19T01:13:54.207Z,3.93
2018-09-19T01:16:22.634Z,4.37
2018-09-19T01:18:51.124Z,4.90
2018-09-19T01:21:19.657Z,4.87
2018-09-19T01:23:48.083Z,5.03
2018-09-19T01:26:16.517Z,3.97
2018-09-19T01:28:44.963Z,4.87
2018-09-19T01:31:13.613Z,4.97
2018-09-19T01:33:42.277Z,4.50
2018-09-19T01:36:11.176Z,5.00
2018-09-19T01:38:40.157Z,4.93
2018-09-19T01:41:08.618Z,5.00
2018-09-19T01:43:37.337Z,4.53
2018-09-19T01:46:06.082Z,4.77
2018-09-19T01:48:34.795Z,4.43
2018-09-19T01:51:03.639Z,4.60
2018-09-19T01:53:32.214Z,4.30
2018-09-19T01:56:01.085Z,4.40
2018-09-19T01:58:29.791Z,4.70
2018-09-19T02:00:58.467Z,4.53
2018-09-19T02:03:27.236Z,5.13
2018-09-19T02:05:55.487Z,5.00
2018-09-19T02:08:24.223Z,4.63
2018-09-19T02:10:53.134Z,4.63
2018-09-19T02:13:21.721Z,4.63
2018-09-19T02:15:50.415Z,4.30
2018-09-19T02:18:19.282Z,4.67
2018-09-19T02:20:48.097Z,4.73
2018-09-19T02:23:16.806Z,4.50
2018-09-19T02:25:45.204Z,4.90
2018-09-19T02:28:13.995Z,4.40
2018-09-19T02:30:42.794Z,4.77
2018-09-19T02:33:11.395Z,4.60
2018-09-19T02:35:39.920Z,4.47
2018-09-19T02:38:08.673Z,4.40
2018-09-19T02:40:37.474Z,4.73
2018-09-19T02:43:06.379Z,4.43
2018-09-19T02:45:35.090Z,4.70
2018-09-19T02:48:03.969Z,4.40
2018-09-19T02:50:32.644Z,4.43
2018-09-19T02:53:01.352Z,4.33
2018-09-19T02:55:30.105Z,4.33
2018-09-19T02:57:58.828Z,4.50
2018-09-19T03:00:27.506Z,4.33
2018-09-19T03:02:55.879Z,4.37
2018-09-19T03:05:24.392Z,4.60
2018-09-19T03:07:53.056Z,4.23
2018-09-19T03:10:21.916Z,4.33
2018-09-19T03:12:50.611Z,4.90
2018-09-19T03:15:19.067Z,4.63
2018-09-19T03:17:48.336Z,4.43
2018-09-19T03:20:16.606Z,4.60
2018-09-19T03:22:46.545Z,4.63
2018-09-19T03:25:15.035Z,4.57
2018-09-19T03:27:43.677Z,4.70
2018-09-19T03:30:12.477Z,4.37
2018-09-19T03:32:40.877Z,4.60
2018-09-19T03:35:09.300Z,4.87
2018-09-19T03:37:37.593Z,4.57
2018-09-19T03:40:06.255Z,4.70
2018-09-19T03:42:35.295Z,4.67
2018-09-19T03:45:03.685Z,4.53
2018-09-19T03:47:32.487Z,4.70
2018-09-19T03:50:01.255Z,4.57
2018-09-19T03:52:29.969Z,4.57
2018-09-19T03:54:58.267Z,5.23
2018-09-19T03:57:26.757Z,4.50
2018-09-19T03:59:55.487Z,4.70
2018-09-19T04:02:24.008Z,4.43
2018-09-19T04:04:52.758Z,4.67
2018-09-19T04:07:21.148Z,4.70
2018-09-19T04:09:49.514Z,4.50
2018-09-19T04:12:18.327Z,4.83
2018-09-19T04:14:46.847Z,4.50
2018-09-19T04:17:15.522Z,4.70
2018-09-19T04:19:44.394Z,4.73
2018-09-19T04:22:13.303Z,5.00
2018-09-19T04:24:41.647Z,4.33
2018-09-19T04:27:10.279Z,4.67
2018-09-19T04:29:38.942Z,4.50
2018-09-19T04:32:07.487Z,4.80
2018-09-19T04:34:36.316Z,4.47
2018-09-19T04:37:04.736Z,4.97
2018-09-19T04:39:33.408Z,4.80
2018-09-19T04:42:02.052Z,4.90
2018-09-19T04:44:30.426Z,4.73
2018-09-19T04:46:59.275Z,4.47
2018-09-19T04:49:27.831Z,4.67
2018-09-19T04:51:56.608Z,4.63
2018-09-19T04:54:25.461Z,4.40
2018-09-19T04:56:54.098Z,5.00
2018-09-19T04:59:22.990Z,4.83
2018-09-19T05:01:51.456Z,4.70
2018-09-19T05:04:20.066Z,5.03
2018-09-19T05:06:48.862Z,4.90
2018-09-19T05:09:17.596Z,4.77
2018-09-19T05:11:45.929Z,4.93
2018-09-19T05:14:30.376Z,4.50
2018-09-19T05:16:58.828Z,4.80
2018-09-19T05:19:27.545Z,4.30
2018-09-19T05:21:56.253Z,4.87
2018-09-19T05:24:24.556Z,5.40
2018-09-19T05:26:52.875Z,5.03
2018-09-19T05:29:21.592Z,4.80
2018-09-19T05:31:50.411Z,5.30
2018-09-19T05:34:18.814Z,4.70
2018-09-19T05:36:47.209Z,5.10
2018-09-19T05:39:15.635Z,4.80
2018-09-19T05:41:44.151Z,5.30
2018-09-19T05:44:12.616Z,4.83
2018-09-19T05:46:41.095Z,4.77
2018-09-19T05:49:09.852Z,4.63
2018-09-19T05:51:38.639Z,4.70
2018-09-19T05:54:07.044Z,4.37
2018-09-19T05:56:35.444Z,4.10
2018-09-19T05:59:03.892Z,4.77
2018-09-19T06:01:32.262Z,5.10
2018-09-19T06:04:00.979Z,4.20
2018-09-19T06:06:29.342Z,4.70
2018-09-19T06:08:57.674Z,4.57
2018-09-19T06:11:26.320Z,4.40
2018-09-19T06:13:55.113Z,4.53
2018-09-19T06:16:23.519Z,4.50
2018-09-19T06:18:52.063Z,4.43
2018-09-19T06:21:20.451Z,4.87
2018-09-19T06:23:48.848Z,4.83
2018-09-19T06:26:17.740Z,4.43
2018-09-19T06:28:46.328Z,5.03
2018-09-19T06:31:15.105Z,4.50
2018-09-19T06:33:43.486Z,4.70
2018-09-19T06:36:11.980Z,5.00
2018-09-19T06:38:40.385Z,6.20
2018-09-19T06:41:08.822Z,6.07
2018-09-19T06:43:37.459Z,6.57
2018-09-19T06:46:06.121Z,8.70
2018-09-19T06:48:34.580Z,9.00
2018-09-19T06:51:03.104Z,10.43
2018-09-19T06:53:31.560Z,10.20
2018-09-19T06:55:59.955Z,10.57
2018-09-19T06:58:28.283Z,9.63
2018-09-19T07:00:56.631Z,8.97
2018-09-19T07:03:25.097Z,8.80
2018-09-19T07:05:53.604Z,7.93
2018-09-19T07:08:21.980Z,7.57
2018-09-19T07:10:50.605Z,7.30
2018-09-19T07:13:19.051Z,7.50
2018-09-19T07:15:47.610Z,6.93
2018-09-19T07:18:16.056Z,6.50
2018-09-19T07:20:44.560Z,6.80
2018-09-19T07:23:12.888Z,6.87
2018-09-19T07:25:41.544Z,6.80
2018-09-19T07:28:09.880Z,6.63
2018-09-19T07:30:38.344Z,7.20
2018-09-19T07:33:06.995Z,7.30
2018-09-19T07:35:35.352Z,6.87
2018-09-19T07:38:03.729Z,7.37
2018-09-19T07:40:32.451Z,7.10
2018-09-19T07:43:01.554Z,7.30
2018-09-19T07:45:30.332Z,6.70
2018-09-19T07:47:58.781Z,6.60
2018-09-19T07:50:27.225Z,6.30
2018-09-19T07:52:56.156Z,6.10
2018-09-19T07:55:25.184Z,5.50
2018-09-19T07:57:53.912Z,5.57
2018-09-19T08:00:22.404Z,4.80
2018-09-19T08:02:50.741Z,5.40
2018-09-19T08:05:19.532Z,6.20
2018-09-19T08:07:49.637Z,5.50
2018-09-19T08:10:18.167Z,6.50
2018-09-19T08:12:48.112Z,5.63
2018-09-19T08:15:16.877Z,5.90
2018-09-19T08:17:47.284Z,6.67
2018-09-19T08:20:15.752Z,6.53
2018-09-19T08:22:44.121Z,6.23
2018-09-19T08:25:12.455Z,6.63
2018-09-19T08:27:41.024Z,6.53
2018-09-19T08:30:09.521Z,6.80
2018-09-19T08:32:37.894Z,6.60
2018-09-19T08:35:06.503Z,6.53
2018-09-19T08:37:34.972Z,5.97
2018-09-19T08:40:03.369Z,6.50
2018-09-19T08:42:31.784Z,6.00
2018-09-19T08:45:00.116Z,6.17
2018-09-19T08:47:28.472Z,5.53
2018-09-19T08:49:56.800Z,5.67
2018-09-19T08:52:25.133Z,5.50
2018-09-19T08:54:53.567Z,5.60
2018-09-19T08:57:21.925Z,5.20
2018-09-19T08:59:50.440Z,5.43
2018-09-19T09:02:18.836Z,5.83
2018-09-19T09:04:47.141Z,6.03
2018-09-19T09:07:15.516Z,5.43
2018-09-19T09:09:44.012Z,6.00
2018-09-19T09:12:12.754Z,5.73
2018-09-19T09:15:23.055Z,5.13
2018-09-19T09:17:51.533Z,5.90
2018-09-19T09:20:19.856Z,6.17
2018-09-19T09:22:50.197Z,5.30
2018-09-19T09:25:18.866Z,5.10
2018-09-19T09:27:48.971Z,5.53
2018-09-19T09:30:17.629Z,4.90
2018-09-19T09:32:48.176Z,5.20
2018-09-19T09:35:16.867Z,5.10
2018-09-19T09:37:45.347Z,5.03
2018-09-19T09:40:15.823Z,4.13
2018-09-19T09:42:44.275Z,4.65
2018-09-19T09:45:12.781Z,4.30
2018-09-19T09:47:41.531Z,4.35
2018-09-19T09:50:09.851Z,4.75
2018-09-19T09:52:38.623Z,4.90
2018-09-19T09:55:07.086Z,4.97
2018-09-19T09:57:35.484Z,4.35
2018-09-19T10:00:03.983Z,4.17
2018-09-19T10:02:32.370Z,4.50
2018-09-19T10:05:00.852Z,4.28
2018-09-19T10:07:29.521Z,4.22
2018-09-19T10:09:58.191Z,4.10
2018-09-19T10:12:27.074Z,4.35
2018-09-19T10:15:36.507Z,4.50
2018-09-19T10:18:04.983Z,4.70
2018-09-19T10:20:33.900Z,4.17
2018-09-19T10:23:02.384Z,4.55
2018-09-19T10:25:30.854Z,4.20
2018-09-19T10:27:59.377Z,4.00
2018-09-19T10:30:28.367Z,4.10
2018-09-19T10:32:56.739Z,3.70
2018-09-19T10:35:25.600Z,3.45
2018-09-19T10:37:53.935Z,3.60
2018-09-19T10:40:22.530Z,3.47
2018-09-19T10:42:51.008Z,4.08
2018-09-19T10:45:19.407Z,3.60
2018-09-19T10:47:49.387Z,3.90
2018-09-19T10:50:17.800Z,3.92
2018-09-19T10:52:47.848Z,4.03
2018-09-19T10:55:16.214Z,4.05
2018-09-19T10:57:44.568Z,4.17
2018-09-19T11:00:13.049Z,3.90
2018-09-19T11:02:41.405Z,4.30
2018-09-19T11:05:09.864Z,3.70
2018-09-19T11:07:38.335Z,3.83
2018-09-19T11:10:07.016Z,3.80
2018-09-19T11:12:35.535Z,3.92
2018-09-19T11:15:46.114Z,3.80
2018-09-19T11:18:14.916Z,3.67
2018-09-19T11:20:43.586Z,4.65
2018-09-19T11:23:12.384Z,4.03
2018-09-19T11:25:41.065Z,4.15
2018-09-19T11:28:09.551Z,4.35
2018-09-19T11:30:37.960Z,3.80
2018-09-19T11:33:06.397Z,4.90
2018-09-19T11:35:35.241Z,4.37
2018-09-19T11:38:03.540Z,4.47
2018-09-19T11:40:32.125Z,4.70
2018-09-19T11:43:00.850Z,4.22
2018-09-19T11:45:29.239Z,3.98
2018-09-19T11:47:57.631Z,3.72
2018-09-19T11:50:26.726Z,4.45
2018-09-19T11:52:55.339Z,4.12
2018-09-19T11:55:23.821Z,3.55
2018-09-19T11:57:52.314Z,3.75
2018-09-19T12:00:20.759Z,3.15
2018-09-19T12:02:50.582Z,3.27
2018-09-19T12:05:19.054Z,3.52
2018-09-19T12:07:48.877Z,2.85
2018-09-19T12:10:17.661Z,3.08
2018-09-19T12:12:46.051Z,3.00
2018-09-19T12:15:58.955Z,2.72
2018-09-19T12:18:27.376Z,3.15
2018-09-19T12:20:55.964Z,3.17
2018-09-19T12:23:24.280Z,2.92
2018-09-19T12:25:52.595Z,3.17
2018-09-19T12:28:21.024Z,3.05
2018-09-19T12:30:49.752Z,3.20
2018-09-19T12:33:18.509Z,3.17
2018-09-19T12:35:46.921Z,2.87
2018-09-19T12:38:15.352Z,2.77
2018-09-19T12:40:44.109Z,2.70
2018-09-19T12:43:12.892Z,3.02
2018-09-19T12:45:41.683Z,2.80
2018-09-19T12:48:10.167Z,2.85
2018-09-19T12:50:38.863Z,3.12
2018-09-19T12:53:07.352Z,2.67
2018-09-19T12:55:36.049Z,2.60
2018-09-19T12:58:04.744Z,2.80
2018-09-19T13:00:33.437Z,2.40
2018-09-19T13:03:01.766Z,2.30
2018-09-19T13:05:30.168Z,2.22
2018-09-19T13:07:58.625Z,2.60
2018-09-19T13:10:27.471Z,2.60
2018-09-19T13:12:56.236Z,2.45
2018-09-19T13:16:09.676Z,2.45
2018-09-19T13:18:38.063Z,2.42
2018-09-19T13:21:06.398Z,2.50
2018-09-19T13:23:34.837Z,2.62
2018-09-19T13:26:03.335Z,2.60
2018-09-19T13:28:31.677Z,2.60
2018-09-19T13:31:00.006Z,2.37
2018-09-19T13:33:28.414Z,2.60
2018-09-19T13:35:57.243Z,2.30
2018-09-19T13:38:25.929Z,2.95
2018-09-19T13:40:54.925Z,2.40
2018-09-19T13:43:23.481Z,3.00
2018-09-19T13:45:51.911Z,3.20
2018-09-19T13:48:20.281Z,2.98
2018-09-19T13:50:55.409Z,3.17
2018-09-19T13:53:24.361Z,3.30
2018-09-19T13:55:53.710Z,2.77
2018-09-19T13:58:22.101Z,2.90
2018-09-19T14:00:50.939Z,2.50
2018-09-19T14:03:19.655Z,2.90
2018-09-19T14:05:48.367Z,3.00
2018-09-19T14:08:16.763Z,3.02
2018-09-19T14:10:45.182Z,2.67
2018-09-19T14:13:13.731Z,2.80
2018-09-19T14:16:26.970Z,3.17
2018-09-19T14:18:55.710Z,2.85
2018-09-19T14:21:24.123Z,3.02
2018-09-19T14:23:52.672Z,2.90
2018-09-19T14:26:21.237Z,2.90
2018-09-19T14:28:49.981Z,2.95
2018-09-19T14:31:18.394Z,2.80
2018-09-19T14:33:46.753Z,3.22
2018-09-19T14:36:15.144Z,2.95
2018-09-19T14:38:43.688Z,2.90
2018-09-19T14:41:12.529Z,2.80
2018-09-19T14:43:40.816Z,2.98
2018-09-19T14:46:09.208Z,3.10
2018-09-19T14:48:37.644Z,3.00
2018-09-19T14:51:06.100Z,3.40
2018-09-19T14:53:34.680Z,3.22
2018-09-19T14:56:02.915Z,3.05
2018-09-19T14:58:31.848Z,3.60
2018-09-19T15:01:00.289Z,3.17
2018-09-19T15:03:28.680Z,3.05
2018-09-19T15:05:57.076Z,2.95
2018-09-19T15:08:25.644Z,3.17
2018-09-19T15:10:55.007Z,2.90
2018-09-19T15:13:23.468Z,3.20
2018-09-19T15:16:39.951Z,3.17
2018-09-19T15:19:08.416Z,3.27
2018-09-19T15:21:36.835Z,3.10
2018-09-19T15:24:05.281Z,3.77
2018-09-19T15:26:33.629Z,3.22
2018-09-19T15:29:02.584Z,3.22
2018-09-19T15:31:31.051Z,3.20
2018-09-19T15:33:59.708Z,3.30
2018-09-19T15:36:28.491Z,3.47
2018-09-19T15:38:57.010Z,3.80
2018-09-19T15:41:25.424Z,3.37
2018-09-19T15:43:53.809Z,3.70
2018-09-19T15:46:22.271Z,3.00
2018-09-19T15:48:50.826Z,3.60
2018-09-19T15:51:19.601Z,4.10
2018-09-19T15:53:48.031Z,3.67
2018-09-19T15:56:16.479Z,3.95
2018-09-19T15:58:44.940Z,3.70
2018-09-19T16:01:13.426Z,3.70
2018-09-19T16:03:41.877Z,3.70
2018-09-19T16:06:10.246Z,4.00
2018-09-19T16:08:39.032Z,4.10
2018-09-19T16:11:07.778Z,3.98
2018-09-19T16:13:36.049Z,4.45
2018-09-19T16:16:50.130Z,4.40
2018-09-19T16:19:18.788Z,4.65
2018-09-19T16:21:47.478Z,4.30
2018-09-19T16:24:16.017Z,4.37
2018-09-19T16:26:44.410Z,4.35
2018-09-19T16:29:12.813Z,4.22
2018-09-19T16:31:41.300Z,4.65
2018-09-19T16:34:09.763Z,4.85
2018-09-19T16:36:38.481Z,5.30
2018-09-19T16:39:09.692Z,4.72
2018-09-19T16:41:38.028Z,4.85
2018-09-19T16:44:06.734Z,4.92
2018-09-19T16:46:35.799Z,4.85
2018-09-19T16:49:04.583Z,4.30
2018-09-19T16:51:33.166Z,4.40
2018-09-19T16:54:01.664Z,5.30
2018-09-19T16:56:30.167Z,4.90
2018-09-19T16:58:58.571Z,4.62
2018-09-19T17:01:27.548Z,4.80
2018-09-19T17:03:56.100Z,5.20
2018-09-19T17:06:24.553Z,4.85
2018-09-19T17:08:52.945Z,4.92
2018-09-19T17:11:24.316Z,4.80
2018-09-19T17:13:52.905Z,4.70
2018-09-19T17:17:01.193Z,5.30
2018-09-19T17:19:29.665Z,5.35
2018-09-19T17:21:58.116Z,4.80
2018-09-19T17:24:26.557Z,5.30
2018-09-19T17:26:55.005Z,5.33
2018-09-19T17:29:23.447Z,5.30
2018-09-19T17:31:52.045Z,5.60
2018-09-19T17:34:20.385Z,5.53
2018-09-19T17:36:48.756Z,5.75
2018-09-19T17:39:17.152Z,5.87
2018-09-19T17:41:45.778Z,6.45
2018-09-19T17:44:14.240Z,7.95
2018-09-19T17:46:42.700Z,6.60
2018-09-19T17:49:11.427Z,5.80
2018-09-19T17:51:39.791Z,5.62
2018-09-19T17:54:08.152Z,5.50
2018-09-19T17:56:36.811Z,5.12
2018-09-19T17:59:05.276Z,5.40
2018-09-19T18:01:33.713Z,5.65
2018-09-19T18:04:02.155Z,5.55
2018-09-19T18:06:30.541Z,5.28
2018-09-19T18:08:59.025Z,5.60
2018-09-19T18:11:28.183Z,7.30
2018-09-19T18:13:56.571Z,7.12
2018-09-19T18:17:06.892Z,6.62
2018-09-19T18:19:35.356Z,6.83
2018-09-19T18:22:03.801Z,6.60
2018-09-19T18:24:32.184Z,6.20
2018-09-19T18:27:00.557Z,5.85
2018-09-19T18:29:29.009Z,6.42
2018-09-19T18:31:57.405Z,6.05
2018-09-19T18:34:25.811Z,6.78
2018-09-19T18:36:54.436Z,6.55
2018-09-19T18:39:23.011Z,6.28
2018-09-19T18:41:51.488Z,6.60
2018-09-19T18:44:20.078Z,5.50
2018-09-19T18:46:48.635Z,6.20
2018-09-19T18:49:21.601Z,6.17
2018-09-19T18:51:50.260Z,6.10
2018-09-19T18:54:20.526Z,5.83
2018-09-19T18:56:49.088Z,6.03
2018-09-19T18:59:17.628Z,5.47
2018-09-19T19:01:46.029Z,5.70
2018-09-19T19:04:14.561Z,6.00
2018-09-19T19:06:43.100Z,6.23
2018-09-19T19:09:12.265Z,6.10
2018-09-19T19:11:40.805Z,6.13
2018-09-19T19:14:09.264Z,6.30
2018-09-19T19:17:12.265Z,5.63
2018-09-19T19:19:40.737Z,6.23
2018-09-19T19:22:09.224Z,5.80
2018-09-19T19:24:37.690Z,5.80
2018-09-19T19:27:06.164Z,5.90
2018-09-19T19:29:34.464Z,6.00
2018-09-19T19:32:02.883Z,5.97
2018-09-19T19:34:31.252Z,6.00
2018-09-19T19:36:59.657Z,6.07
2018-09-19T19:39:27.999Z,6.00
2018-09-19T19:41:56.447Z,6.07
2018-09-19T19:44:25.033Z,5.73
2018-09-19T19:46:53.535Z,6.47
2018-09-19T19:49:22.016Z,6.30
2018-09-19T19:51:50.428Z,5.67
2018-09-19T19:54:18.917Z,5.40
2018-09-19T19:56:47.300Z,6.20
2018-09-19T19:59:15.822Z,5.57
2018-09-19T20:01:44.268Z,5.73
2018-09-19T20:04:12.691Z,5.70
2018-09-19T20:06:41.027Z,6.33
2018-09-19T20:09:09.764Z,5.80
2018-09-19T20:11:38.499Z,6.30
2018-09-19T20:14:07.163Z,5.73
2018-09-19T20:20:15.696Z,5.77
2018-09-19T20:22:44.096Z,6.53
2018-09-19T20:25:12.500Z,5.70
2018-09-19T20:28:17.758Z,6.00
2018-09-19T20:30:46.211Z,6.43
2018-09-19T20:33:14.589Z,6.00
2018-09-19T20:35:43.081Z,6.00
2018-09-19T20:38:11.529Z,6.30
2018-09-19T20:40:40.021Z,6.50
2018-09-19T20:43:08.638Z,5.50
2018-09-19T20:45:37.017Z,6.00
2018-09-19T20:48:05.468Z,6.00
2018-09-19T20:50:33.948Z,6.33
2018-09-19T20:53:02.400Z,6.17
2018-09-19T20:55:30.857Z,5.93
2018-09-19T20:57:59.184Z,6.00
2018-09-19T21:00:27.440Z,6.00
2018-09-19T21:02:55.875Z,6.47
2018-09-19T21:05:24.389Z,6.57
2018-09-19T21:07:53.097Z,6.00
2018-09-19T21:10:22.155Z,6.30
2018-09-19T21:12:52.268Z,6.20
2018-09-19T21:15:47.583Z,6.17
2018-09-19T21:18:15.974Z,6.10
2018-09-19T21:20:44.746Z,6.20
2018-09-19T21:23:13.153Z,6.10
2018-09-19T21:25:41.853Z,6.47
2018-09-19T21:28:11.024Z,6.37
2018-09-19T21:30:39.700Z,6.30
2018-09-19T21:33:08.140Z,6.13
2018-09-19T21:35:36.828Z,6.20
2018-09-19T21:38:05.284Z,5.80
2018-09-19T21:40:33.781Z,6.07
2018-09-19T21:43:02.176Z,6.60
2018-09-19T21:45:30.631Z,6.77
2018-09-19T21:47:59.081Z,6.17
2018-09-19T21:50:27.548Z,6.27
2018-09-19T21:52:55.999Z,6.70
2018-09-19T21:55:25.523Z,6.37
2018-09-19T21:57:53.909Z,6.60
2018-09-19T22:00:22.541Z,5.97
2018-09-19T22:02:52.444Z,6.17
2018-09-19T22:05:20.775Z,6.47
2018-09-19T22:07:50.783Z,6.47
2018-09-19T22:10:19.116Z,6.77
2018-09-19T22:12:47.562Z,6.40
2018-09-19T22:15:15.841Z,7.20
2018-09-19T22:17:44.392Z,6.63
2018-09-19T22:20:12.813Z,7.53
2018-09-19T22:22:41.220Z,6.80
2018-09-19T22:25:09.614Z,6.77
2018-09-19T22:27:37.974Z,6.53
2018-09-19T22:30:06.383Z,6.40
2018-09-19T22:32:34.849Z,6.67
2018-09-19T22:35:03.251Z,6.77
2018-09-19T22:37:31.684Z,6.40
2018-09-19T22:40:00.189Z,6.90
2018-09-19T22:42:28.697Z,7.70
2018-09-19T22:44:57.153Z,6.47
2018-09-19T22:47:25.501Z,7.03
2018-09-19T22:49:53.987Z,6.80
2018-09-19T22:52:22.399Z,7.97
2018-09-19T22:54:50.670Z,6.70
2018-09-19T22:57:19.045Z,6.83
2018-09-19T22:59:47.448Z,7.00
2018-09-19T23:02:15.866Z,6.80
2018-09-19T23:04:44.186Z,6.73
2018-09-19T23:07:12.562Z,6.40
2018-09-19T23:09:41.064Z,6.17
2018-09-19T23:12:09.388Z,7.00
2018-09-19T23:14:37.833Z,6.67
2018-09-19T23:17:06.535Z,5.80
2018-09-19T23:19:34.836Z,6.67
2018-09-19T23:22:03.281Z,6.93
2018-09-19T23:24:31.780Z,6.10
2018-09-19T23:27:00.231Z,6.57
2018-09-19T23:29:28.639Z,6.40
2018-09-19T23:31:57.033Z,6.90
2018-09-19T23:34:25.464Z,7.00
2018-09-19T23:36:53.892Z,7.30
2018-09-19T23:39:22.306Z,6.87
2018-09-19T23:41:50.696Z,6.70
2018-09-19T23:44:19.081Z,7.10
2018-09-19T23:46:47.530Z,6.83
2018-09-19T23:49:15.916Z,6.63
2018-09-19T23:51:44.393Z,7.10
2018-09-19T23:54:12.696Z,6.97
2018-09-19T23:56:40.984Z,6.70
2018-09-19T23:59:09.443Z,6.70
